Time;durP1;ratioP1;P1;durP2;ratioP2;P2;SDS_P1;SDS_P2;PMS_P1;PMS_P2;Temp;Humidity;BMP_temperature;BMP_pressure;BME280_temperature;BME280_humidity;BME280_pressure;Samples;Min_cycle;Max_cycle;Signal;HPM_P1;HPM_P2
2024/02/11 00:01:28;;;;;;;;;;;23.10;37.70;;;;;;5072673;28;20382;-57
2024/02/11 00:03:55;;;;;;;;;;;23.10;37.80;;;;;;5073159;28;19924;-58
2024/02/11 00:06:23;;;;;;;;;;;23.10;37.80;;;;;;5073166;28;19978;-57
2024/02/11 00:08:51;;;;;;;;;;;23.10;37.90;;;;;;5072844;28;19970;-57
2024/02/11 00:11:21;;;;;;;;;;;23.10;37.90;;;;;;5072726;28;19932;-57
2024/02/11 00:13:48;;;;;;;;;;;23.10;37.90;;;;;;5073104;28;19924;-57
2024/02/11 00:16:15;;;;;;;;;;;23.10;38.00;;;;;;5072748;28;19924;-58
2024/02/11 00:18:42;;;;;;;;;;;23.10;37.90;;;;;;5072970;28;19932;-58
2024/02/11 00:21:09;;;;;;;;;;;23.10;38.00;;;;;;5073020;28;19925;-58
2024/02/11 00:23:36;;;;;;;;;;;23.10;38.00;;;;;;5072757;28;19974;-57
2024/02/11 00:26:06;;;;;;;;;;;23.10;37.90;;;;;;5073061;28;20018;-57
2024/02/11 00:28:33;;;;;;;;;;;23.10;37.90;;;;;;5072656;28;19925;-58
2024/02/11 00:31:03;;;;;;;;;;;23.10;37.90;;;;;;5072924;28;19970;-58
2024/02/11 00:33:30;;;;;;;;;;;23.10;38.00;;;;;;5055087;28;19924;-57
2024/02/11 00:35:59;;;;;;;;;;;23.10;37.90;;;;;;5038692;28;20279;-58
2024/02/11 00:38:27;;;;;;;;;;;23.10;37.90;;;;;;5072599;28;19924;-58
2024/02/11 00:40:54;;;;;;;;;;;23.10;38.00;;;;;;5076557;28;19925;-57
2024/02/11 00:43:21;;;;;;;;;;;23.10;38.00;;;;;;5058565;28;19925;-58
2024/02/11 00:45:48;;;;;;;;;;;23.10;38.00;;;;;;5076319;28;19925;-58
2024/02/11 00:48:15;;;;;;;;;;;23.10;37.90;;;;;;5076213;28;19962;-57
2024/02/11 00:50:42;;;;;;;;;;;23.10;38.00;;;;;;5076255;28;19950;-57
2024/02/11 00:53:10;;;;;;;;;;;23.10;38.00;;;;;;5076285;28;19964;-58
2024/02/11 00:55:37;;;;;;;;;;;23.10;38.00;;;;;;5058259;28;19951;-58
2024/02/11 00:58:04;;;;;;;;;;;23.10;38.00;;;;;;5076303;28;19924;-57
2024/02/11 01:00:31;;;;;;;;;;;23.10;38.00;;;;;;5075752;28;19951;-57
2024/02/11 01:02:58;;;;;;;;;;;23.10;38.00;;;;;;5075893;28;20023;-58
2024/02/11 01:05:25;;;;;;;;;;;23.10;38.00;;;;;;5076245;28;20023;-57
2024/02/11 01:07:52;;;;;;;;;;;23.00;38.00;;;;;;5075841;28;19931;-58
2024/02/11 01:10:21;;;;;;;;;;;23.00;38.00;;;;;;5075854;28;19925;-57
2024/02/11 01:12:49;;;;;;;;;;;23.00;38.00;;;;;;5075603;28;19928;-57
2024/02/11 01:15:16;;;;;;;;;;;23.00;38.00;;;;;;5075886;28;19929;-57
2024/02/11 01:17:44;;;;;;;;;;;23.00;38.10;;;;;;5075540;28;20427;-57
2024/02/11 01:20:13;;;;;;;;;;;23.00;38.10;;;;;;5075931;28;19924;-57
2024/02/11 01:22:44;;;;;;;;;;;23.00;38.10;;;;;;5075568;28;20394;-57
2024/02/11 01:25:11;;;;;;;;;;;23.00;38.10;;;;;;5075554;28;19924;-57
2024/02/11 01:27:38;;;;;;;;;;;23.00;38.20;;;;;;5075855;28;19931;-57
2024/02/11 01:30:06;;;;;;;;;;;23.00;38.20;;;;;;5075850;28;20332;-57
2024/02/11 01:32:33;;;;;;;;;;;23.00;38.20;;;;;;5075000;28;19942;-57
2024/02/11 01:35:00;;;;;;;;;;;23.00;38.20;;;;;;5057860;28;19925;-57
2024/02/11 01:37:27;;;;;;;;;;;23.00;38.20;;;;;;5075085;28;19925;-57
2024/02/11 01:39:53;;;;;;;;;;;23.00;38.20;;;;;;5075561;28;19931;-57
2024/02/11 01:42:20;;;;;;;;;;;23.00;38.10;;;;;;5075353;28;19986;-57
2024/02/11 01:44:47;;;;;;;;;;;23.00;38.20;;;;;;5075167;28;19934;-57
2024/02/11 01:47:15;;;;;;;;;;;23.00;38.20;;;;;;5075089;28;19970;-58
2024/02/11 01:49:42;;;;;;;;;;;23.00;38.20;;;;;;5075494;28;20407;-57
2024/02/11 01:52:10;;;;;;;;;;;23.00;38.20;;;;;;5074126;28;19925;-57
2024/02/11 01:54:37;;;;;;;;;;;23.00;38.20;;;;;;5074712;28;19978;-57
2024/02/11 01:57:05;;;;;;;;;;;23.00;38.20;;;;;;5074848;28;19929;-57
2024/02/11 01:59:36;;;;;;;;;;;23.00;38.20;;;;;;5075233;28;20293;-57
2024/02/11 02:02:08;;;;;;;;;;;23.00;38.20;;;;;;5075034;28;20010;-57
2024/02/11 02:04:36;;;;;;;;;;;23.00;38.20;;;;;;5074724;28;19925;-58
2024/02/11 02:07:04;;;;;;;;;;;23.00;38.20;;;;;;5075108;28;19947;-57
2024/02/11 02:09:32;;;;;;;;;;;23.00;38.20;;;;;;5074785;28;19924;-58
2024/02/11 02:12:02;;;;;;;;;;;23.00;38.20;;;;;;5074786;28;19924;-58
2024/02/11 02:14:29;;;;;;;;;;;23.00;38.20;;;;;;5074747;28;19990;-57
2024/02/11 02:16:56;;;;;;;;;;;23.00;38.20;;;;;;5074280;28;19924;-57
2024/02/11 02:19:25;;;;;;;;;;;23.00;38.20;;;;;;5074593;28;19924;-57
2024/02/11 02:21:54;;;;;;;;;;;23.00;38.20;;;;;;5074381;28;19925;-57
2024/02/11 02:24:21;;;;;;;;;;;23.00;38.20;;;;;;5074473;28;19930;-57
2024/02/11 02:26:48;;;;;;;;;;;23.00;38.30;;;;;;5074330;28;19932;-57
2024/02/11 02:29:15;;;;;;;;;;;23.00;38.20;;;;;;5056677;28;19929;-58
2024/02/11 02:31:42;;;;;;;;;;;23.00;38.20;;;;;;5074363;28;20047;-57
2024/02/11 02:34:08;;;;;;;;;;;23.00;38.30;;;;;;5074366;28;20291;-57
2024/02/11 02:36:36;;;;;;;;;;;23.00;38.30;;;;;;5073739;28;19976;-57
2024/02/11 02:39:03;;;;;;;;;;;23.00;38.30;;;;;;5074056;28;19924;-57
2024/02/11 02:41:30;;;;;;;;;;;23.00;38.30;;;;;;5073956;28;19924;-57
2024/02/11 02:44:00;;;;;;;;;;;23.00;38.30;;;;;;5074078;28;19925;-57
2024/02/11 02:46:29;;;;;;;;;;;23.00;38.40;;;;;;5073822;28;19979;-58
2024/02/11 02:48:57;;;;;;;;;;;23.00;38.40;;;;;;5074327;28;19924;-57
2024/02/11 02:51:24;;;;;;;;;;;23.00;38.40;;;;;;5073667;28;19975;-57
2024/02/11 02:53:51;;;;;;;;;;;23.00;38.40;;;;;;5073713;28;20019;-57
2024/02/11 02:56:18;;;;;;;;;;;23.00;38.30;;;;;;5073548;28;19932;-59
2024/02/11 02:58:45;;;;;;;;;;;23.00;38.30;;;;;;5073964;28;19997;-58
2024/02/11 03:01:20;;;;;;;;;;;23.00;38.40;;;;;;5073603;28;20024;-57
2024/02/11 03:03:48;;;;;;;;;;;23.00;38.30;;;;;;5073042;28;19924;-58
2024/02/11 03:06:15;;;;;;;;;;;23.00;38.40;;;;;;5073591;28;20381;-57
2024/02/11 03:08:42;;;;;;;;;;;23.00;38.40;;;;;;5073430;28;19978;-57
2024/02/11 03:11:09;;;;;;;;;;;23.00;38.30;;;;;;5073922;28;19931;-58
2024/02/11 03:13:36;;;;;;;;;;;23.00;38.40;;;;;;5073546;28;19951;-57
2024/02/11 03:16:03;;;;;;;;;;;23.00;38.40;;;;;;5073668;28;19947;-58
2024/02/11 03:18:30;;;;;;;;;;;23.00;38.40;;;;;;5073535;28;20008;-57
2024/02/11 03:20:59;;;;;;;;;;;23.00;38.40;;;;;;5073446;28;19925;-57
2024/02/11 03:23:26;;;;;;;;;;;23.00;38.40;;;;;;5073487;28;19968;-58
2024/02/11 03:25:53;;;;;;;;;;;23.00;38.40;;;;;;5073499;28;20389;-57
2024/02/11 03:28:20;;;;;;;;;;;23.00;38.40;;;;;;5073164;28;20431;-57
2024/02/11 03:30:47;;;;;;;;;;;23.00;38.40;;;;;;5054934;28;19935;-57
2024/02/11 03:33:14;;;;;;;;;;;23.00;38.40;;;;;;5073362;28;19932;-57
2024/02/11 03:35:41;;;;;;;;;;;23.00;38.40;;;;;;5073160;28;19931;-57
2024/02/11 03:38:09;;;;;;;;;;;23.00;38.40;;;;;;5073185;28;20320;-57
2024/02/11 03:40:37;;;;;;;;;;;23.00;38.40;;;;;;5073360;28;20038;-58
2024/02/11 03:43:04;;;;;;;;;;;23.00;38.40;;;;;;5073097;28;19932;-57
2024/02/11 03:45:30;;;;;;;;;;;23.00;38.40;;;;;;5073554;28;19931;-57
2024/02/11 03:47:57;;;;;;;;;;;23.00;38.40;;;;;;5055766;28;20373;-57
2024/02/11 03:50:25;;;;;;;;;;;23.00;38.40;;;;;;5073115;28;19974;-57
2024/02/11 03:52:53;;;;;;;;;;;23.00;38.50;;;;;;5072771;28;19931;-57
2024/02/11 03:55:20;;;;;;;;;;;22.90;38.40;;;;;;5055398;28;19925;-57
2024/02/11 03:57:47;;;;;;;;;;;23.00;38.50;;;;;;5055078;28;19938;-58
2024/02/11 04:00:20;;;;;;;;;;;22.90;38.40;;;;;;5073385;28;19932;-57
2024/02/11 04:02:47;;;;;;;;;;;22.90;38.50;;;;;;5073160;28;19928;-57
2024/02/11 04:05:15;;;;;;;;;;;23.00;38.50;;;;;;5073024;28;19925;-57
2024/02/11 04:07:45;;;;;;;;;;;22.90;38.50;;;;;;5072938;28;19924;-57
2024/02/11 04:10:22;;;;;;;;;;;23.00;38.50;;;;;;5073258;28;20461;-57
2024/02/11 04:12:53;;;;;;;;;;;23.00;38.50;;;;;;5072658;28;19929;-57
2024/02/11 04:15:22;;;;;;;;;;;23.00;38.50;;;;;;5042245;28;19931;-57
2024/02/11 04:17:50;;;;;;;;;;;23.00;38.50;;;;;;5076909;28;19928;-57
2024/02/11 04:20:31;;;;;;;;;;;23.00;38.50;;;;;;5077031;28;19935;-57
2024/02/11 04:23:00;;;;;;;;;;;23.00;39.00;;;;;;5076905;28;19925;-57
2024/02/11 04:25:33;;;;;;;;;;;23.00;38.50;;;;;;5076869;28;19929;-57
2024/02/11 04:28:01;;;;;;;;;;;23.00;38.50;;;;;;5059380;28;20382;-57
2024/02/11 04:30:29;;;;;;;;;;;23.00;38.50;;;;;;5076660;28;19947;-57
2024/02/11 04:33:02;;;;;;;;;;;22.90;38.50;;;;;;5075972;28;19931;-57
2024/02/11 04:35:30;;;;;;;;;;;22.90;38.50;;;;;;5076410;28;20001;-57
2024/02/11 04:37:59;;;;;;;;;;;23.00;38.50;;;;;;5058404;28;19924;-57
2024/02/11 04:40:26;;;;;;;;;;;22.90;38.50;;;;;;5076261;28;19932;-57
2024/02/11 04:42:56;;;;;;;;;;;23.00;38.50;;;;;;5076293;28;19924;-57
2024/02/11 04:45:24;;;;;;;;;;;23.00;38.50;;;;;;5076597;28;20320;-57
2024/02/11 04:48:03;;;;;;;;;;;22.90;38.40;;;;;;5076178;28;19978;-57
2024/02/11 04:50:32;;;;;;;;;;;23.00;38.40;;;;;;5076115;28;19925;-57
2024/02/11 04:53:02;;;;;;;;;;;23.00;38.40;;;;;;5058310;28;19971;-56
2024/02/11 04:55:38;;;;;;;;;;;23.00;38.40;;;;;;5076330;28;19951;-57
2024/02/11 04:58:13;;;;;;;;;;;23.00;38.40;;;;;;5059570;28;19970;-57
2024/02/11 05:00:41;;;;;;;;;;;23.00;38.30;;;;;;5075881;28;20518;-57
2024/02/11 05:03:10;;;;;;;;;;;23.00;38.30;;;;;;5076200;28;19924;-57
2024/02/11 05:05:41;;;;;;;;;;;23.00;38.30;;;;;;5075967;28;19924;-57
2024/02/11 05:08:09;;;;;;;;;;;23.00;38.40;;;;;;5076066;28;20348;-57
2024/02/11 05:10:40;;;;;;;;;;;23.00;38.40;;;;;;5076041;28;19928;-57
2024/02/11 05:13:08;;;;;;;;;;;23.00;38.40;;;;;;5075990;28;19924;-57
2024/02/11 05:15:40;;;;;;;;;;;23.00;38.40;;;;;;5075984;28;19925;-57
2024/02/11 05:18:18;;;;;;;;;;;23.00;38.40;;;;;;5075360;28;19931;-57
2024/02/11 05:20:47;;;;;;;;;;;23.00;38.40;;;;;;5075947;28;19928;-59
2024/02/11 05:23:15;;;;;;;;;;;23.00;38.40;;;;;;5075719;28;19925;-57
2024/02/11 05:25:46;;;;;;;;;;;23.00;38.40;;;;;;5074574;28;19975;-58
2024/02/11 05:28:15;;;;;;;;;;;23.00;38.40;;;;;;5075464;28;19924;-57
2024/02/11 05:30:45;;;;;;;;;;;23.00;38.40;;;;;;5074996;28;20321;-57
2024/02/11 05:33:17;;;;;;;;;;;23.00;38.40;;;;;;5058442;28;19970;-57
2024/02/11 05:35:46;;;;;;;;;;;23.10;38.40;;;;;;5075668;28;19970;-57
2024/02/11 05:38:14;;;;;;;;;;;23.10;38.40;;;;;;5070422;28;19925;-57
2024/02/11 05:40:43;;;;;;;;;;;23.10;38.40;;;;;;5056670;28;20028;-57
2024/02/11 05:43:19;;;;;;;;;;;23.10;38.40;;;;;;5072339;28;19924;-57
2024/02/11 05:45:46;;;;;;;;;;;23.10;38.40;;;;;;5075270;28;19978;-58
2024/02/11 05:48:13;;;;;;;;;;;23.10;38.30;;;;;;5075147;28;20374;-57
2024/02/11 05:50:41;;;;;;;;;;;23.10;38.30;;;;;;5075362;28;19935;-57
2024/02/11 05:53:08;;;;;;;;;;;23.10;38.30;;;;;;5075194;28;19947;-58
2024/02/11 05:55:38;;;;;;;;;;;23.10;38.30;;;;;;5075256;28;19925;-57
2024/02/11 05:58:05;;;;;;;;;;;23.10;38.30;;;;;;5074553;28;20381;-64
2024/02/11 06:00:32;;;;;;;;;;;23.10;38.30;;;;;;5074771;28;20026;-57
2024/02/11 06:03:00;;;;;;;;;;;23.10;38.30;;;;;;5074745;28;20405;-57
2024/02/11 06:05:28;;;;;;;;;;;23.10;38.30;;;;;;5074789;28;19925;-58
2024/02/11 06:07:59;;;;;;;;;;;23.10;38.30;;;;;;5075033;28;19924;-59
2024/02/11 06:10:35;;;;;;;;;;;23.10;38.30;;;;;;5075076;28;19932;-60
2024/02/11 06:13:03;;;;;;;;;;;23.10;38.30;;;;;;5074782;28;19929;-59
2024/02/11 06:15:32;;;;;;;;;;;23.10;38.30;;;;;;5074596;28;19982;-60
2024/02/11 06:18:01;;;;;;;;;;;23.10;38.30;;;;;;5074260;28;20424;-58
2024/02/11 06:20:29;;;;;;;;;;;23.10;38.30;;;;;;5074437;28;19925;-57
2024/02/11 06:22:57;;;;;;;;;;;23.10;38.30;;;;;;5074307;28;19924;-57
2024/02/11 06:25:24;;;;;;;;;;;23.10;38.30;;;;;;5074371;28;19967;-58
2024/02/11 06:27:51;;;;;;;;;;;23.10;38.30;;;;;;5074207;28;19930;-58
2024/02/11 06:30:19;;;;;;;;;;;23.10;38.30;;;;;;5074631;28;20374;-58
2024/02/11 06:32:49;;;;;;;;;;;23.10;38.30;;;;;;5074228;28;19931;-57
2024/02/11 06:35:18;;;;;;;;;;;23.10;38.30;;;;;;5074352;28;20335;-57
2024/02/11 06:37:48;;;;;;;;;;;23.10;38.30;;;;;;5073683;28;20357;-57
2024/02/11 06:40:17;;;;;;;;;;;23.10;38.30;;;;;;5074112;28;20015;-56
2024/02/11 06:42:50;;;;;;;;;;;23.10;38.30;;;;;;5056915;28;20019;-58
2024/02/11 06:45:18;;;;;;;;;;;23.10;38.30;;;;;;5073968;28;19934;-58
2024/02/11 06:47:45;;;;;;;;;;;23.20;38.40;;;;;;5073879;28;19924;-58
2024/02/11 06:50:16;;;;;;;;;;;23.20;38.30;;;;;;5073646;28;19929;-58
2024/02/11 06:52:44;;;;;;;;;;;23.20;38.30;;;;;;5071226;28;19968;-58
2024/02/11 06:55:15;;;;;;;;;;;23.20;38.30;;;;;;5073652;28;20023;-57
2024/02/11 06:57:45;;;;;;;;;;;23.20;38.30;;;;;;5073815;28;19928;-57
2024/02/11 07:00:14;;;;;;;;;;;23.20;38.30;;;;;;5074012;28;19924;-58
2024/02/11 07:02:45;;;;;;;;;;;23.20;38.30;;;;;;5073883;28;20386;-57
2024/02/11 07:05:14;;;;;;;;;;;23.10;38.20;;;;;;5071975;28;19925;-58
2024/02/11 07:07:42;;;;;;;;;;;23.20;38.20;;;;;;5073497;28;19929;-57
2024/02/11 07:10:09;;;;;;;;;;;23.20;38.20;;;;;;5073844;28;20011;-57
2024/02/11 07:12:36;;;;;;;;;;;23.20;38.20;;;;;;5073336;28;19982;-58
2024/02/11 07:15:04;;;;;;;;;;;23.20;38.20;;;;;;5073730;28;19964;-57
2024/02/11 07:17:32;;;;;;;;;;;23.20;38.30;;;;;;5072202;28;19935;-58
2024/02/11 07:20:00;;;;;;;;;;;23.20;38.20;;;;;;5072660;28;19970;-58
2024/02/11 07:22:27;;;;;;;;;;;23.20;38.20;;;;;;5073479;28;19985;-58
2024/02/11 07:24:56;;;;;;;;;;;23.30;38.30;;;;;;5073269;28;19928;-58
2024/02/11 07:27:24;;;;;;;;;;;23.30;38.20;;;;;;5073396;28;19925;-57
2024/02/11 07:29:51;;;;;;;;;;;23.30;38.20;;;;;;5073186;28;19928;-57
2024/02/11 07:32:19;;;;;;;;;;;23.30;38.20;;;;;;5073179;28;20352;-57
2024/02/11 07:34:47;;;;;;;;;;;23.30;38.20;;;;;;5073207;28;19955;-57
2024/02/11 07:37:14;;;;;;;;;;;23.30;38.20;;;;;;5072724;28;19928;-57
2024/02/11 07:39:41;;;;;;;;;;;23.30;38.20;;;;;;5073077;28;19932;-55
2024/02/11 07:42:08;;;;;;;;;;;23.30;38.20;;;;;;5073579;28;19939;-57
2024/02/11 07:44:35;;;;;;;;;;;23.30;38.20;;;;;;5072771;28;19924;-57
2024/02/11 07:47:05;;;;;;;;;;;23.30;38.20;;;;;;5073007;28;19925;-57
2024/02/11 07:49:33;;;;;;;;;;;23.30;38.10;;;;;;5073327;28;20385;-57
2024/02/11 07:52:00;;;;;;;;;;;23.30;38.10;;;;;;5062386;28;19924;-57
2024/02/11 07:54:27;;;;;;;;;;;23.30;38.20;;;;;;5079930;28;20315;-57
2024/02/11 07:56:54;;;;;;;;;;;23.30;38.10;;;;;;5079104;28;19929;-57
2024/02/11 07:59:24;;;;;;;;;;;23.30;38.10;;;;;;5061692;28;20027;-57
2024/02/11 08:01:51;;;;;;;;;;;23.30;38.10;;;;;;5061940;28;19928;-57
2024/02/11 08:04:18;;;;;;;;;;;23.30;38.10;;;;;;5080009;28;19931;-57
2024/02/11 08:06:46;;;;;;;;;;;23.40;38.10;;;;;;5079609;28;19946;-57
2024/02/11 08:09:13;;;;;;;;;;;23.40;38.10;;;;;;5080321;28;20262;-57
2024/02/11 08:11:44;;;;;;;;;;;23.40;38.10;;;;;;5079971;28;19925;-57
2024/02/11 08:14:11;;;;;;;;;;;23.40;38.10;;;;;;5079443;28;19935;-56
2024/02/11 08:16:38;;;;;;;;;;;23.40;38.10;;;;;;5079691;28;20320;-58
2024/02/11 08:19:08;;;;;;;;;;;23.40;38.10;;;;;;5079171;28;19925;-57
2024/02/11 08:21:36;;;;;;;;;;;23.40;38.10;;;;;;5079839;28;19932;-58
2024/02/11 08:24:03;;;;;;;;;;;23.40;38.10;;;;;;5079643;28;20007;-58
2024/02/11 08:26:30;;;;;;;;;;;23.40;38.10;;;;;;5079877;28;19939;-57
2024/02/11 08:28:59;;;;;;;;;;;23.50;38.10;;;;;;5079724;28;19925;-57
2024/02/11 08:31:28;;;;;;;;;;;23.40;38.10;;;;;;5079845;28;20332;-57
2024/02/11 08:33:57;;;;;;;;;;;23.40;38.00;;;;;;5079577;28;20293;-57
2024/02/11 08:36:25;;;;;;;;;;;23.40;38.00;;;;;;5079324;28;19925;-58
2024/02/11 08:38:52;;;;;;;;;;;23.50;38.10;;;;;;5079543;28;19928;-58
2024/02/11 08:41:19;;;;;;;;;;;23.50;38.10;;;;;;5079503;28;19929;-57
2024/02/11 08:43:47;;;;;;;;;;;23.50;38.10;;;;;;5079167;28;20385;-57
2024/02/11 08:46:14;;;;;;;;;;;23.50;38.10;;;;;;5079413;28;19924;-59
2024/02/11 08:48:41;;;;;;;;;;;23.50;38.10;;;;;;5077985;28;20357;-57
2024/02/11 08:51:10;;;;;;;;;;;23.50;38.10;;;;;;5071762;28;20019;-57
2024/02/11 08:53:37;;;;;;;;;;;23.50;38.10;;;;;;5078298;28;19925;-58
2024/02/11 08:56:04;;;;;;;;;;;23.50;38.10;;;;;;5078698;28;19999;-58
2024/02/11 08:58:34;;;;;;;;;;;23.50;38.10;;;;;;5078388;28;19930;-57
2024/02/11 09:01:02;;;;;;;;;;;23.50;38.10;;;;;;5075802;28;19929;-58
2024/02/11 09:03:29;;;;;;;;;;;23.50;38.10;;;;;;5075856;28;19931;-58
2024/02/11 09:05:56;;;;;;;;;;;23.50;38.10;;;;;;5075010;28;19931;-57
2024/02/11 09:08:24;;;;;;;;;;;23.50;38.10;;;;;;5066741;28;19963;-57
2024/02/11 09:10:52;;;;;;;;;;;23.60;38.10;;;;;;5074649;28;19924;-57
2024/02/11 09:13:19;;;;;;;;;;;23.60;38.10;;;;;;5075783;28;20049;-57
2024/02/11 09:15:46;;;;;;;;;;;23.60;38.10;;;;;;5075180;28;20396;-58
2024/02/11 09:18:15;;;;;;;;;;;23.60;38.10;;;;;;5073989;28;19924;-57
2024/02/11 09:20:43;;;;;;;;;;;23.60;38.10;;;;;;5075133;28;19938;-58
2024/02/11 09:23:10;;;;;;;;;;;23.60;38.10;;;;;;5075465;28;19928;-57
2024/02/11 09:25:39;;;;;;;;;;;23.60;38.20;;;;;;5075542;28;19925;-57
2024/02/11 09:28:06;;;;;;;;;;;23.60;38.20;;;;;;5075218;28;19929;-57
2024/02/11 09:30:33;;;;;;;;;;;23.60;38.20;;;;;;5075717;28;19977;-57
2024/02/11 09:33:01;;;;;;;;;;;23.60;38.20;;;;;;5070464;28;20413;-57
2024/02/11 09:35:28;;;;;;;;;;;23.60;38.10;;;;;;5057627;28;20382;-57
2024/02/11 09:37:55;;;;;;;;;;;23.70;38.20;;;;;;5075106;28;20016;-57
2024/02/11 09:40:23;;;;;;;;;;;23.70;38.20;;;;;;5075111;28;20338;-57
2024/02/11 09:42:50;;;;;;;;;;;23.70;38.20;;;;;;5075247;28;19925;-57
2024/02/11 09:45:19;;;;;;;;;;;23.70;38.20;;;;;;5075074;28;20390;-58
2024/02/11 09:47:49;;;;;;;;;;;23.70;38.10;;;;;;5075293;28;19931;-56
2024/02/11 09:50:17;;;;;;;;;;;23.70;38.20;;;;;;5075492;28;19924;-57
2024/02/11 09:52:46;;;;;;;;;;;23.70;38.10;;;;;;5057861;28;19925;-57
2024/02/11 09:55:19;;;;;;;;;;;23.70;38.10;;;;;;5074814;28;19924;-57
2024/02/11 09:57:47;;;;;;;;;;;23.80;38.10;;;;;;5075009;28;19925;-57
2024/02/11 10:00:14;;;;;;;;;;;23.80;38.10;;;;;;5075053;28;19963;-57
2024/02/11 10:02:43;;;;;;;;;;;23.80;38.30;;;;;;5074730;28;19939;-57
2024/02/11 10:05:11;;;;;;;;;;;23.80;38.10;;;;;;5074955;28;19924;-58
2024/02/11 10:07:43;;;;;;;;;;;23.90;38.10;;;;;;5075095;28;19924;-57
2024/02/11 10:10:14;;;;;;;;;;;23.90;38.70;;;;;;5074992;28;19924;-57
2024/02/11 10:12:43;;;;;;;;;;;23.90;38.10;;;;;;5074374;28;19968;-57
2024/02/11 10:15:16;;;;;;;;;;;23.90;38.10;;;;;;5074824;28;19924;-56
2024/02/11 10:17:44;;;;;;;;;;;23.90;38.10;;;;;;5068739;28;19925;-57
2024/02/11 10:20:13;;;;;;;;;;;23.90;38.10;;;;;;5072061;28;19960;-58
2024/02/11 10:22:42;;;;;;;;;;;23.90;38.10;;;;;;5073741;28;19936;-58
2024/02/11 10:25:11;;;;;;;;;;;23.90;38.10;;;;;;5073170;28;20405;-57
2024/02/11 10:27:39;;;;;;;;;;;23.90;38.00;;;;;;5074546;28;19925;-56
2024/02/11 10:30:10;;;;;;;;;;;23.90;38.00;;;;;;5074338;28;20266;-57
2024/02/11 10:32:38;;;;;;;;;;;24.00;38.10;;;;;;5074158;28;20400;-57
2024/02/11 10:35:06;;;;;;;;;;;24.00;38.10;;;;;;5074254;28;19931;-57
2024/02/11 10:37:38;;;;;;;;;;;24.00;38.00;;;;;;5074015;28;19924;-58
2024/02/11 10:40:08;;;;;;;;;;;24.00;38.10;;;;;;5074055;28;19928;-57
2024/02/11 10:42:35;;;;;;;;;;;24.00;38.00;;;;;;5056496;28;20007;-57
2024/02/11 10:45:03;;;;;;;;;;;24.00;38.10;;;;;;5074096;28;19934;-55
2024/02/11 10:47:32;;;;;;;;;;;24.00;38.00;;;;;;5074332;28;19924;-57
2024/02/11 10:49:59;;;;;;;;;;;24.10;38.10;;;;;;5074042;28;20381;-57
2024/02/11 10:52:42;;;;;;;;;;;24.10;38.10;;;;;;5073713;28;19924;-57
2024/02/11 10:55:12;;;;;;;;;;;24.10;38.10;;;;;;5073578;28;19924;-57
2024/02/11 10:57:44;;;;;;;;;;;24.10;38.10;;;;;;5073665;28;19932;-57
2024/02/11 11:00:13;;;;;;;;;;;24.10;38.10;;;;;;5073748;28;20019;-57
2024/02/11 11:02:42;;;;;;;;;;;24.10;38.00;;;;;;5073809;28;20289;-57
2024/02/11 11:05:11;;;;;;;;;;;24.10;38.10;;;;;;5073848;28;19924;-57
2024/02/11 11:07:39;;;;;;;;;;;24.20;38.10;;;;;;5073790;28;20031;-58
2024/02/11 11:10:10;;;;;;;;;;;24.20;38.00;;;;;;5073644;28;20018;-57
2024/02/11 11:12:48;;;;;;;;;;;24.20;38.00;;;;;;5073453;28;19925;-59
2024/02/11 11:15:26;;;;;;;;;;;24.30;37.90;;;;;;5073215;28;20023;-57
2024/02/11 11:17:53;;;;;;;;;;;24.30;37.80;;;;;;5073617;28;19928;-58
2024/02/11 11:20:21;;;;;;;;;;;24.40;37.80;;;;;;5073324;28;19925;-57
2024/02/11 11:22:49;;;;;;;;;;;24.40;37.70;;;;;;5073088;28;19925;-58
2024/02/11 11:25:23;;;;;;;;;;;24.50;37.70;;;;;;5072829;28;19924;-57
2024/02/11 11:27:50;;;;;;;;;;;24.60;37.60;;;;;;5073579;28;19924;-57
2024/02/11 11:30:19;;;;;;;;;;;24.60;37.50;;;;;;5073667;28;19947;-57
2024/02/11 11:32:48;;;;;;;;;;;24.60;37.50;;;;;;5073541;28;19970;-57
2024/02/11 11:35:21;;;;;;;;;;;24.60;37.50;;;;;;5072713;28;19931;-57
2024/02/11 11:37:49;;;;;;;;;;;24.70;37.50;;;;;;5073068;28;19931;-57
2024/02/11 11:40:17;;;;;;;;;;;24.70;37.50;;;;;;5073297;28;20007;-57
2024/02/11 11:42:44;;;;;;;;;;;24.70;37.40;;;;;;5072977;28;20377;-57
2024/02/11 11:45:11;;;;;;;;;;;24.70;37.50;;;;;;5073183;28;19924;-57
2024/02/11 11:47:38;;;;;;;;;;;24.70;37.40;;;;;;5073643;28;19925;-57
2024/02/11 11:50:06;;;;;;;;;;;24.70;37.50;;;;;;5073166;28;19925;-57
2024/02/11 11:52:33;;;;;;;;;;;24.80;37.50;;;;;;5073256;28;20294;-58
2024/02/11 11:55:03;;;;;;;;;;;24.80;37.50;;;;;;5072913;28;19924;-57
2024/02/11 11:57:31;;;;;;;;;;;24.80;37.50;;;;;;5072896;28;19924;-57
2024/02/11 12:00:00;;;;;;;;;;;24.90;37.50;;;;;;5073407;28;20289;-58
2024/02/11 12:02:29;;;;;;;;;;;24.80;37.40;;;;;;5072830;28;20447;-57
2024/02/11 12:04:57;;;;;;;;;;;24.90;37.40;;;;;;5073183;28;19928;-57
2024/02/11 12:07:24;;;;;;;;;;;24.90;37.40;;;;;;5072733;28;19936;-57
2024/02/11 12:09:52;;;;;;;;;;;24.90;37.30;;;;;;5072916;28;20397;-57
2024/02/11 12:12:20;;;;;;;;;;;24.90;37.30;;;;;;5054983;28;19978;-57
2024/02/11 12:14:47;;;;;;;;;;;24.90;37.30;;;;;;5072993;28;20355;-59
2024/02/11 12:17:14;;;;;;;;;;;24.90;37.20;;;;;;5072528;28;20006;-57
2024/02/11 12:19:45;;;;;;;;;;;25.00;37.20;;;;;;5072829;28;20441;-58
2024/02/11 12:22:12;;;;;;;;;;;25.00;37.20;;;;;;5072698;28;19975;-57
2024/02/11 12:24:41;;;;;;;;;;;25.00;37.20;;;;;;5072590;28;20370;-57
2024/02/11 12:27:14;;;;;;;;;;;25.00;37.20;;;;;;5072585;28;20013;-57
2024/02/11 12:29:41;;;;;;;;;;;24.90;37.20;;;;;;5073017;28;19925;-57
2024/02/11 12:32:09;;;;;;;;;;;24.90;37.10;;;;;;5054872;28;20020;-57
2024/02/11 12:34:37;;;;;;;;;;;24.90;37.10;;;;;;5072893;28;19932;-57
2024/02/11 12:37:04;;;;;;;;;;;24.90;37.20;;;;;;5076262;28;19924;-57
2024/02/11 12:39:31;;;;;;;;;;;24.90;37.30;;;;;;5076739;28;19924;-57
2024/02/11 12:41:58;;;;;;;;;;;24.90;37.30;;;;;;5076474;28;19924;-57
2024/02/11 12:44:28;;;;;;;;;;;24.90;37.40;;;;;;5076685;28;20344;-57
2024/02/11 12:46:55;;;;;;;;;;;24.90;37.40;;;;;;5076559;28;19925;-57
2024/02/11 12:49:23;;;;;;;;;;;24.90;37.40;;;;;;5058894;28;19967;-57
2024/02/11 12:51:50;;;;;;;;;;;24.90;37.40;;;;;;5076670;28;19924;-57
2024/02/11 12:54:17;;;;;;;;;;;24.90;37.40;;;;;;5076145;28;19979;-57
2024/02/11 12:56:45;;;;;;;;;;;24.90;37.40;;;;;;5076357;28;19924;-57
2024/02/11 12:59:12;;;;;;;;;;;24.90;37.50;;;;;;5075960;28;19928;-57
2024/02/11 13:01:38;;;;;;;;;;;24.90;37.50;;;;;;5076268;28;19925;-57
2024/02/11 13:04:06;;;;;;;;;;;24.90;37.60;;;;;;5075987;28;20019;-57
2024/02/11 13:06:35;;;;;;;;;;;24.80;37.50;;;;;;5076143;28;20363;-57
2024/02/11 13:09:03;;;;;;;;;;;24.90;37.70;;;;;;5076026;28;19925;-56
2024/02/11 13:11:30;;;;;;;;;;;24.80;37.60;;;;;;5076286;28;19925;-57
2024/02/11 13:13:57;;;;;;;;;;;24.80;37.80;;;;;;5075816;28;19924;-57
2024/02/11 13:16:25;;;;;;;;;;;24.70;37.70;;;;;;5075566;28;19925;-57
2024/02/11 13:18:53;;;;;;;;;;;24.70;37.70;;;;;;5075700;28;19924;-57
2024/02/11 13:21:20;;;;;;;;;;;24.70;37.80;;;;;;5076041;28;19929;-57
2024/02/11 13:23:47;;;;;;;;;;;24.70;37.90;;;;;;5075470;28;19982;-57
2024/02/11 13:26:15;;;;;;;;;;;24.70;37.90;;;;;;5057789;28;19924;-57
2024/02/11 13:28:43;;;;;;;;;;;24.70;37.90;;;;;;5075530;28;20390;-57
2024/02/11 13:31:10;;;;;;;;;;;24.70;38.00;;;;;;5075426;28;19924;-57
2024/02/11 13:33:51;;;;;;;;;;;24.70;37.90;;;;;;5075375;28;19924;-57
2024/02/11 13:36:18;;;;;;;;;;;24.70;37.90;;;;;;5075321;28;19925;-57
2024/02/11 13:38:45;;;;;;;;;;;24.70;38.00;;;;;;5074875;28;20293;-57
2024/02/11 13:41:12;;;;;;;;;;;24.70;38.00;;;;;;5075308;28;19925;-57
2024/02/11 13:43:39;;;;;;;;;;;24.70;38.00;;;;;;5075549;28;20344;-57
2024/02/11 13:46:12;;;;;;;;;;;24.70;38.00;;;;;;5075148;28;19947;-57
2024/02/11 13:48:41;;;;;;;;;;;24.70;38.00;;;;;;5075221;28;20283;-57
2024/02/11 13:51:09;;;;;;;;;;;24.70;38.00;;;;;;5075115;28;19983;-58
2024/02/11 13:53:39;;;;;;;;;;;24.70;38.00;;;;;;5075311;28;20309;-59
2024/02/11 13:56:06;;;;;;;;;;;24.70;38.10;;;;;;5074954;28;19924;-57
2024/02/11 13:58:34;;;;;;;;;;;24.70;38.20;;;;;;5075125;28;19924;-57
2024/02/11 14:01:01;;;;;;;;;;;24.70;38.20;;;;;;5075159;28;19956;-58
2024/02/11 14:03:28;;;;;;;;;;;24.60;38.20;;;;;;5074998;28;19932;-58
2024/02/11 14:05:56;;;;;;;;;;;24.60;38.30;;;;;;5073689;28;19924;-58
2024/02/11 14:08:23;;;;;;;;;;;24.60;38.40;;;;;;5074677;28;19948;-57
2024/02/11 14:10:50;;;;;;;;;;;24.50;38.50;;;;;;5074945;28;19924;-59
2024/02/11 14:13:19;;;;;;;;;;;24.50;39.10;;;;;;5074655;28;20385;-59
2024/02/11 14:15:46;;;;;;;;;;;24.50;38.60;;;;;;5074438;28;20331;-65
2024/02/11 14:18:13;;;;;;;;;;;24.50;38.70;;;;;;5074531;28;19924;-62
2024/02/11 14:20:40;;;;;;;;;;;24.40;38.80;;;;;;5074815;28;19928;-60
2024/02/11 14:23:08;;;;;;;;;;;24.40;38.90;;;;;;5074425;28;19931;-60